W.w. Crum — WDB7252 — position and weather

sailwx.info

Track history (hours):
 
Tides and Currents Weather Stations Pressure Air Temp Water Temp Dewpoint Dewpoint Depression Visibility Wind Speed Wind Dir Waves Ship Positions

W.w. Crum

Owner: Magnolia Marine Transport Co, Vicksburg, MS. More information available from US FCC via Universal Licensing System and Coast Guard Vessel Documentation Center.

Last reported at 2017-Mar-24 09:25 UTC. Time now 2017-Mar-28 00:40 UTC.
Position N 31°59' W 091°06'.

Length 40 m; draft 2.7 m.

Type: Towing. MMSI: 366939330.

Date/timePositionNaut miles runAvg speedWind from/ knotsBaromVisibWave heightAir tempDewpointWater temp
2017-Mar-24 09:25N 31°59' W 091°06'7 7.7
2017-Mar-24 08:33N 32°06' W 091°06'6 6.3
2017-Mar-24 07:33N 32°10' W 091°00'9 8.9
2017-Mar-24 06:33N 32°18' W 090°55'3 2.9
2017-Mar-24 05:33N 32°20' W 090°54'1 1.4
2017-Mar-24 04:33N 32°22' W 090°53'1 0.5
2017-Mar-24 03:33N 32°22' W 090°53'1 1.3
2017-Mar-24 02:33N 32°23' W 090°54'2 1.6
2017-Mar-24 01:33N 32°22' W 090°53'0 0.1
2017-Mar-24 00:33N 32°22' W 090°53'1 0.6
2017-Mar-23 23:33N 32°22' W 090°53'1 0.8
2017-Mar-23 22:33N 32°23' W 090°53'3 2.6
2017-Mar-23 21:33N 32°21' W 090°54'2 1.7
2017-Mar-23 20:33N 32°19' W 090°54'1 1.0
2017-Mar-23 19:33N 32°18' W 090°55'0 0.0
2017-Mar-23 18:33N 32°18' W 090°55'0 0.0
2017-Mar-23 17:33N 32°18' W 090°55'0 0.0
2017-Mar-23 16:33N 32°18' W 090°55'4 3.6
2017-Mar-23 15:33N 32°16' W 090°58'4 3.7
2017-Mar-23 14:33N 32°12' W 090°59'4 3.7
2017-Mar-23 13:33N 32°09' W 091°00'3 3.1
2017-Mar-23 12:32N 32°08' W 091°04'2 2.4
2017-Mar-23 11:33N 32°07' W 091°06'4 3.9
2017-Mar-23 10:33N 32°03' W 091°03'8 3.9
2017-Mar-23 08:25N 31°58' W 091°11'  
2017-Mar-20 05:33N 29°57' W 090°23'  
Track history (hours):
 
Tides and Currents Weather Stations Pressure Air Temp Water Temp Dewpoint Dewpoint Depression Visibility Wind Speed Wind Dir Waves Ship Positions

W.w. Crum

Owner: Magnolia Marine Transport Co, Vicksburg, MS. More information available from US FCC via Universal Licensing System and Coast Guard Vessel Documentation Center.

Last reported at 2017-Mar-24 09:25 UTC. Time now 2017-Mar-28 00:40 UTC.
Position N 31°59' W 091°06'.

Length 40 m; draft 2.7 m.

Type: Towing. MMSI: 366939330.

Date/timePositionNaut miles runAvg speedWind from/ knotsBaromVisibWave heightAir tempDewpointWater temp
2017-Mar-24 09:25N 31°59' W 091°06'7 7.7
2017-Mar-24 08:33N 32°06' W 091°06'6 6.3
2017-Mar-24 07:33N 32°10' W 091°00'9 8.9
2017-Mar-24 06:33N 32°18' W 090°55'3 2.9
2017-Mar-24 05:33N 32°20' W 090°54'1 1.4
2017-Mar-24 04:33N 32°22' W 090°53'1 0.5
2017-Mar-24 03:33N 32°22' W 090°53'1 1.3
2017-Mar-24 02:33N 32°23' W 090°54'2 1.6
2017-Mar-24 01:33N 32°22' W 090°53'0 0.1
2017-Mar-24 00:33N 32°22' W 090°53'1 0.6
2017-Mar-23 23:33N 32°22' W 090°53'1 0.8
2017-Mar-23 22:33N 32°23' W 090°53'3 2.6
2017-Mar-23 21:33N 32°21' W 090°54'2 1.7
2017-Mar-23 20:33N 32°19' W 090°54'1 1.0
2017-Mar-23 19:33N 32°18' W 090°55'0 0.0
2017-Mar-23 18:33N 32°18' W 090°55'0 0.0
2017-Mar-23 17:33N 32°18' W 090°55'0 0.0
2017-Mar-23 16:33N 32°18' W 090°55'4 3.6
2017-Mar-23 15:33N 32°16' W 090°58'4 3.7
2017-Mar-23 14:33N 32°12' W 090°59'4 3.7
2017-Mar-23 13:33N 32°09' W 091°00'3 3.1
2017-Mar-23 12:32N 32°08' W 091°04'2 2.4
2017-Mar-23 11:33N 32°07' W 091°06'4 3.9
2017-Mar-23 10:33N 32°03' W 091°03'8 3.9
2017-Mar-23 08:25N 31°58' W 091°11'  
2017-Mar-20 05:33N 29°57' W 090°23'  

Dump ship's entire track history